Airfield :
LOGIN :

Register | Disclaimer

   EN    FR    IT 

 










Legend :    VFR   Marginal VFR   IFR   Intensive IFR   Very Intensive IFR
Visi :
Ceiling :
>= 8 km
>= 3000ft
5 to 8 km
1000 to 3000 ft
1500m to 5 km
500 to 1000 ft
800 to 1500m
200 to 500 ft
< 800m
< 200 ft
Symbols :   Thunderstorms  Fog  Heavy snow  Heavy precipitations  Wind > 20 kt
SIGMETs :     Misc.  Thunderstorms  Icing  Turbulence  Mountain Waves  Volcanic Ashes







- Airport Elevation : 219 ft
- IATA code : DNR
- Download approach charts


LFRD - Dinard

CURRENT METAR :
  • 141700Z AUTO 33009KT 9999 OVC012 19/17 Q1021 TEMPO BKN006

EXPIRED METARs :
  • 141630Z AUTO 32011KT 9999 BKN014 OVC024 20/16 Q1022 TEMPO BKN006
  • 141600Z AUTO 30011KT 9999 FEW015 OVC024 20/16 Q1021 TEMPO BKN006
  • 141530Z AUTO 33012KT 9999 FEW017 SCT024 BKN044 20/16 Q1022 NOSIG
  • 141500Z AUTO 31011KT 280V340 9999 FEW018 21/16 Q1021 BECMG BKN015
  • 141430Z AUTO 32013KT 290V350 9999 SCT019 BKN032 21/15 Q1021 NOSIG

TAF TAF LFRD
Valid from the 14 at 12:00 until the 15 at 12:00 UTC


141100Z 1412/1512 32010KT 9999 BKN025
BECMG 1416/1418 BKN015
TEMPO 1418/1509 BKN006
BECMG 1422/1424 30005KT
BECMG 1509/1512 BKN020
ATIS : +33 2 99 16 81 50
No reported NOTAMs for that airfield.



MET'MAP, your aeronautical weather chart ! - Copyright ORBIFLY December 2007 - Disclaimer

ORBIFLY MET'MAP TEAM :

Programming & Development : Alexandra Zaïnal
Concept & Development : Baudouin d'Aumeries
Co-Development & Prog : Marc-Olivier Méhu
Technical & hardware support : Manuel Goepfert

Contact : metmap@orbifly.com




SOURCES & CREDITS :

   NOAA